Weather at Solana North Heliport

Public forecast

Using degrees Fahrenheit for public forecast. Weather courtesy of forecast.io.

Closest aviation weather report (METAR) to Solana North Heliport

Closest report is Perot Field/Fort Worth Alliance Airport, 7.5 nm (13.8 km) W.

2024/04/22 10:53 (retrieved 1 hour ago)

KAFW 221053Z 00000KT 10SM CLR 08/05 A3025 RMK AO2 SLP242 T00830050

Closest aviation forecast (TAF) to Solana North Heliport

Closest forecast is Perot Field/Fort Worth Alliance Airport, 7.5 nm (13.8 km) W.

2024/04/22 12:22 (retrieved 0 seconds ago)

TAF KSRB 221120Z 2212/2312 VRB04KT P6SM SKC TAF KAFW 221120Z 2212/2312 17009KT P6SM FEW250